createdAt,value
2023-01-29T00:03:58.999Z,41.97
2023-01-29T00:09:01.167Z,42.40
2023-01-29T00:14:03.360Z,40.58
2023-01-29T00:19:05.635Z,40.50
2023-01-29T00:24:08.037Z,41.78
2023-01-29T00:29:10.290Z,36.78
2023-01-29T00:34:12.418Z,48.30
2023-01-29T00:39:14.566Z,46.10
2023-01-29T00:44:38.256Z,44.30
2023-01-29T00:49:40.369Z,41.53
2023-01-29T00:54:43.698Z,43.47
2023-01-29T00:59:45.895Z,46.17
2023-01-29T01:04:47.977Z,42.95
2023-01-29T01:10:08.837Z,46.05
2023-01-29T01:15:11.015Z,42.67
2023-01-29T01:20:13.375Z,40.45
2023-01-29T01:25:16.174Z,42.17
2023-01-29T01:30:18.598Z,41.63
2023-01-29T01:35:21.044Z,39.85
2023-01-29T01:40:25.012Z,47.13
2023-01-29T01:45:31.396Z,40.42
2023-01-29T01:50:39.867Z,41.87
2023-01-29T01:55:47.442Z,42.92
2023-01-29T02:00:50.140Z,46.10
2023-01-29T02:06:13.995Z,39.13
2023-01-29T02:11:16.811Z,39.10
2023-01-29T02:16:22.419Z,37.33
2023-01-29T02:21:25.075Z,42.60
2023-01-29T02:26:48.654Z,42.15
2023-01-29T02:31:56.081Z,40.33
2023-01-29T02:37:11.741Z,41.17
2023-01-29T02:42:30.983Z,41.33
2023-01-29T02:47:52.467Z,27.65
2023-01-29T02:53:12.176Z,37.72
2023-01-29T02:58:22.556Z,34.95
2023-01-29T03:03:36.236Z,41.00
2023-01-29T03:08:43.270Z,40.50
2023-01-29T03:13:59.997Z,37.55
2023-01-29T03:19:08.533Z,37.60
2023-01-29T03:24:31.780Z,37.63
2023-01-29T03:29:55.392Z,26.62
2023-01-29T03:35:01.785Z,32.70
2023-01-29T03:40:05.508Z,36.60
2023-01-29T03:45:45.136Z,30.90
2023-01-29T03:51:12.636Z,34.03
2023-01-29T03:56:45.496Z,31.45
2023-01-29T04:01:54.555Z,37.00
2023-01-29T04:07:02.535Z,31.50
2023-01-29T04:12:09.276Z,31.62
2023-01-29T04:17:15.930Z,30.23
2023-01-29T04:22:23.149Z,30.33
2023-01-29T04:27:28.401Z,23.37
2023-01-29T04:32:51.771Z,26.10
2023-01-29T04:38:08.211Z,23.15
2023-01-29T04:43:21.499Z,24.80
2023-01-29T04:48:23.505Z,24.92
2023-01-29T04:53:49.319Z,26.67
2023-01-29T04:59:23.807Z,25.25
2023-01-29T05:04:27.719Z,26.02
2023-01-29T05:09:31.320Z,27.23
2023-01-29T05:14:35.650Z,25.23
2023-01-29T05:19:37.864Z,24.77
2023-01-29T05:24:41.111Z,29.95
2023-01-29T05:29:47.739Z,26.48
2023-01-29T05:34:49.819Z,25.02
2023-01-29T05:39:51.909Z,22.02
2023-01-29T05:44:53.997Z,22.93
2023-01-29T05:49:56.125Z,24.77
2023-01-29T05:54:58.254Z,23.25
2023-01-29T06:00:01.574Z,25.88
2023-01-29T06:05:04.007Z,18.80
2023-01-29T06:10:06.646Z,23.67
2023-01-29T06:15:09.232Z,25.17
2023-01-29T06:20:11.966Z,28.67
2023-01-29T06:25:14.195Z,26.23
2023-01-29T06:30:18.211Z,19.17
2023-01-29T06:35:21.685Z,24.10
2023-01-29T06:40:23.848Z,21.12
2023-01-29T06:45:26.055Z,21.87
2023-01-29T06:50:28.258Z,22.02
2023-01-29T06:55:30.361Z,20.05
2023-01-29T07:00:33.044Z,25.13
2023-01-29T07:05:35.246Z,22.02
2023-01-29T07:10:37.603Z,22.85
2023-01-29T07:15:39.802Z,22.40
2023-01-29T07:20:43.111Z,23.95
2023-01-29T07:25:45.583Z,21.07
2023-01-29T07:30:47.842Z,18.85
2023-01-29T07:35:50.614Z,19.35
2023-01-29T07:40:54.371Z,13.25
2023-01-29T07:46:03.485Z,22.52
2023-01-29T07:51:06.810Z,22.27
2023-01-29T07:56:08.910Z,18.73
2023-01-29T08:01:11.134Z,21.12
2023-01-29T08:06:13.315Z,23.60
2023-01-29T08:11:15.589Z,21.62
2023-01-29T08:16:17.911Z,20.63
2023-01-29T08:21:20.067Z,18.70
2023-01-29T08:26:22.643Z,17.92
2023-01-29T08:31:24.793Z,19.73
2023-01-29T08:36:26.929Z,16.30
2023-01-29T08:41:29.071Z,13.50
2023-01-29T08:46:34.356Z,17.17
2023-01-29T08:51:36.621Z,16.55
2023-01-29T08:56:40.250Z,15.57
2023-01-29T09:01:42.418Z,15.48
2023-01-29T09:06:44.557Z,19.47
2023-01-29T09:11:46.735Z,17.15
2023-01-29T09:16:48.896Z,15.93
2023-01-29T09:21:51.007Z,16.20
2023-01-29T09:26:53.080Z,16.15
2023-01-29T09:31:55.271Z,18.73
2023-01-29T09:36:58.303Z,16.90
2023-01-29T09:42:13.953Z,16.15
2023-01-29T09:47:17.941Z,15.95
2023-01-29T09:52:30.101Z,17.92
2023-01-29T09:57:40.820Z,16.10
2023-01-29T10:02:59.205Z,13.02
2023-01-29T10:08:04.205Z,15.25
2023-01-29T10:13:31.722Z,15.75
2023-01-29T10:18:45.331Z,18.65
2023-01-29T10:23:54.093Z,14.90
2023-01-29T10:28:59.616Z,16.00
2023-01-29T10:34:14.384Z,15.02
2023-01-29T10:39:24.478Z,14.27
2023-01-29T10:44:51.464Z,14.98
2023-01-29T10:50:15.533Z,13.80
2023-01-29T10:55:26.752Z,13.00
2023-01-29T11:00:37.159Z,14.00
2023-01-29T11:06:02.272Z,13.50
2023-01-29T11:11:12.987Z,13.85
2023-01-29T11:16:15.365Z,10.73
2023-01-29T11:21:17.463Z,10.70
2023-01-29T11:26:23.974Z,13.90
2023-01-29T11:31:29.532Z,13.43
2023-01-29T11:36:38.828Z,10.48
2023-01-29T11:42:01.073Z,13.17
2023-01-29T11:47:16.234Z,13.75
2023-01-29T11:52:21.818Z,11.60
2023-01-29T11:57:40.651Z,15.05
2023-01-29T12:02:46.061Z,11.57
2023-01-29T12:07:51.446Z,12.13
2023-01-29T12:13:09.862Z,13.40
2023-01-29T12:18:57.713Z,11.80
2023-01-29T12:24:03.450Z,15.88
2023-01-29T12:29:17.860Z,12.70
2023-01-29T12:34:27.715Z,11.30
2023-01-29T12:39:30.231Z,13.38
2023-01-29T12:44:42.494Z,11.82
2023-01-29T12:49:50.585Z,13.32
2023-01-29T12:55:00.596Z,12.20
2023-01-29T13:00:09.998Z,13.33
2023-01-29T13:05:26.452Z,11.07
2023-01-29T13:10:36.266Z,13.00
2023-01-29T13:15:44.219Z,9.88
2023-01-29T13:20:49.808Z,10.55
2023-01-29T13:25:54.951Z,10.93
2023-01-29T13:31:31.648Z,10.68
2023-01-29T13:36:35.260Z,12.43
2023-01-29T13:41:42.563Z,10.05
2023-01-29T13:46:52.435Z,12.23
2023-01-29T13:51:54.749Z,11.03
2023-01-29T13:57:01.121Z,11.70
2023-01-29T14:02:18.749Z,12.50
2023-01-29T14:07:50.017Z,11.05
2023-01-29T14:13:18.025Z,12.10
2023-01-29T14:18:22.145Z,13.97
2023-01-29T14:23:28.613Z,11.70
2023-01-29T14:28:33.918Z,12.25
2023-01-29T14:33:41.852Z,11.75
2023-01-29T14:38:51.891Z,11.57
2023-01-29T14:44:32.095Z,12.03
2023-01-29T14:49:54.495Z,13.13
2023-01-29T14:55:04.353Z,12.52
2023-01-29T15:00:22.035Z,13.27
2023-01-29T15:05:38.990Z,11.18
2023-01-29T15:10:45.946Z,12.60
2023-01-29T15:15:55.187Z,13.40
2023-01-29T15:21:11.877Z,16.52
2023-01-29T15:26:19.823Z,13.02
2023-01-29T15:31:22.392Z,15.27
2023-01-29T15:36:31.233Z,15.00
2023-01-29T15:41:33.328Z,14.38
2023-01-29T15:46:40.052Z,15.73
2023-01-29T15:51:42.471Z,17.67
2023-01-29T15:56:51.900Z,17.08
2023-01-29T16:01:54.271Z,16.77
2023-01-29T16:07:00.431Z,17.37
2023-01-29T16:12:03.240Z,17.58
2023-01-29T16:17:24.178Z,15.07
2023-01-29T16:22:32.737Z,16.20
2023-01-29T16:27:35.383Z,19.17
2023-01-29T16:32:37.593Z,17.77
2023-01-29T16:37:39.733Z,18.27
2023-01-29T16:42:42.179Z,19.98
2023-01-29T16:47:44.367Z,16.83
2023-01-29T16:53:05.547Z,17.07
2023-01-29T16:58:17.207Z,19.05
2023-01-29T17:03:20.132Z,18.37
2023-01-29T17:08:32.442Z,19.08
2023-01-29T17:13:45.281Z,17.70
2023-01-29T17:18:47.365Z,19.00
2023-01-29T17:23:50.004Z,18.35
2023-01-29T17:28:53.808Z,18.10
2023-01-29T17:33:56.145Z,21.40
2023-01-29T17:38:58.196Z,15.10
2023-01-29T17:44:00.297Z,22.43
2023-01-29T17:49:04.473Z,23.58
2023-01-29T17:54:06.604Z,21.42
2023-01-29T17:59:19.869Z,24.92
2023-01-29T18:04:22.240Z,22.90
2023-01-29T18:09:24.781Z,17.57
2023-01-29T18:14:26.849Z,21.55
2023-01-29T18:19:31.256Z,22.95
2023-01-29T18:24:34.113Z,22.52
2023-01-29T18:29:36.255Z,19.98
2023-01-29T18:34:38.438Z,23.67
2023-01-29T18:39:40.581Z,22.42
2023-01-29T18:44:42.864Z,21.62
2023-01-29T18:49:45.350Z,21.20
2023-01-29T18:54:47.603Z,19.12
2023-01-29T18:59:49.719Z,21.33
2023-01-29T19:04:52.054Z,24.10
2023-01-29T19:09:54.221Z,23.05
2023-01-29T19:14:59.785Z,24.42
2023-01-29T19:20:02.351Z,24.08
2023-01-29T19:25:05.240Z,23.93
2023-01-29T19:30:08.477Z,22.10
2023-01-29T19:35:10.629Z,25.10
2023-01-29T19:40:12.931Z,22.77
2023-01-29T19:45:15.479Z,21.02
2023-01-29T19:50:18.114Z,23.90
2023-01-29T19:55:21.216Z,25.33
2023-01-29T20:00:23.583Z,22.33
2023-01-29T20:05:27.266Z,22.00
2023-01-29T20:10:29.454Z,23.55
2023-01-29T20:15:32.013Z,28.07
2023-01-29T20:20:34.094Z,24.98
2023-01-29T20:25:37.436Z,23.02
2023-01-29T20:30:41.054Z,20.95
2023-01-29T20:35:45.124Z,25.62
2023-01-29T20:40:47.456Z,20.93
2023-01-29T20:45:49.559Z,21.05
2023-01-29T20:50:51.880Z,22.27
2023-01-29T20:55:54.306Z,22.80
2023-01-29T21:00:56.740Z,23.33
2023-01-29T21:05:59.287Z,21.10
2023-01-29T21:11:02.022Z,24.23
2023-01-29T21:16:04.627Z,24.42
2023-01-29T21:21:06.808Z,22.52
2023-01-29T21:26:09.279Z,22.37
2023-01-29T21:31:14.570Z,21.77
2023-01-29T21:36:17.080Z,24.35
2023-01-29T21:41:19.319Z,23.60
2023-01-29T21:46:21.606Z,23.10
2023-01-29T21:51:24.231Z,25.60
2023-01-29T21:56:32.361Z,23.97
2023-01-29T22:01:37.571Z,28.62
2023-01-29T22:06:41.023Z,22.87
2023-01-29T22:11:43.249Z,25.37
2023-01-29T22:16:50.096Z,23.60
2023-01-29T22:21:56.329Z,23.73
2023-01-29T22:26:58.456Z,25.65
2023-01-29T22:32:00.879Z,25.90
2023-01-29T22:37:03.087Z,25.73
2023-01-29T22:42:07.965Z,26.60
2023-01-29T22:47:10.253Z,26.67
2023-01-29T22:52:12.400Z,25.50
2023-01-29T22:57:15.947Z,25.23
2023-01-29T23:02:18.142Z,24.08
2023-01-29T23:07:20.321Z,24.15
2023-01-29T23:12:22.488Z,24.27
2023-01-29T23:17:24.728Z,22.98
2023-01-29T23:22:26.970Z,35.65
2023-01-29T23:27:29.213Z,22.87
2023-01-29T23:32:33.138Z,23.90
2023-01-29T23:37:35.383Z,25.33
2023-01-29T23:42:37.582Z,27.00
2023-01-29T23:47:39.890Z,26.08
2023-01-29T23:52:42.215Z,23.23
2023-01-29T23:57:44.697Z,22.75
